createdAt,value
2022-10-23T00:00:18.410Z,100922.91
2022-10-23T00:02:45.566Z,100917.81
2022-10-23T00:05:12.596Z,100917.81
2022-10-23T00:07:39.418Z,100921.38
2022-10-23T00:10:07.071Z,100913.59
2022-10-23T00:12:35.241Z,100929.38
2022-10-23T00:15:02.060Z,100918.97
2022-10-23T00:17:32.712Z,100917.00
2022-10-23T00:19:59.512Z,100911.75
2022-10-23T00:22:26.323Z,100909.31
2022-10-23T00:24:53.383Z,100911.00
2022-10-23T00:27:20.208Z,100906.28
2022-10-23T00:29:48.340Z,100915.06
2022-10-23T00:32:15.201Z,100908.22
2022-10-23T00:34:42.012Z,100899.03
2022-10-23T00:37:08.797Z,100893.78
2022-10-23T00:39:35.736Z,100894.47
2022-10-23T00:42:02.494Z,100901.66
2022-10-23T00:45:08.777Z,100909.44
2022-10-23T00:47:36.952Z,100908.19
2022-10-23T00:50:04.859Z,100906.13
2022-10-23T00:52:33.633Z,100899.50
2022-10-23T00:55:00.570Z,100904.75
2022-10-23T00:59:54.307Z,100898.59
2022-10-23T01:02:21.399Z,100895.03
2022-10-23T01:04:49.631Z,100893.91
2022-10-23T01:07:22.254Z,100892.66
2022-10-23T01:09:58.919Z,100886.53
2022-10-23T01:12:34.943Z,100871.84
2022-10-23T01:15:10.345Z,100864.38
2022-10-23T01:17:44.581Z,100863.69
2022-10-23T01:20:25.403Z,100852.31
2022-10-23T01:23:14.757Z,100857.28
2022-10-23T01:25:58.932Z,100858.97
2022-10-23T01:28:29.837Z,100855.38
2022-10-23T01:30:58.669Z,100850.88
2022-10-23T01:33:31.599Z,100851.38
2022-10-23T01:36:02.678Z,100858.38
2022-10-23T01:38:38.991Z,100858.97
2022-10-23T01:41:11.871Z,100855.91
2022-10-23T01:43:44.264Z,100846.53
2022-10-23T01:46:14.312Z,100841.56
2022-10-23T01:48:46.151Z,100832.06
2022-10-23T01:51:15.347Z,100829.38
2022-10-23T01:53:44.892Z,100816.66
2022-10-23T01:56:15.549Z,100809.56
2022-10-23T01:58:48.197Z,100808.28
2022-10-23T02:01:18.432Z,100813.88
2022-10-23T02:03:46.536Z,100807.72
2022-10-23T02:06:13.511Z,100803.69
2022-10-23T02:08:40.515Z,100798.28
2022-10-23T02:11:09.008Z,100799.06
2022-10-23T02:13:42.707Z,100806.34
2022-10-23T02:16:19.318Z,100791.91
2022-10-23T02:18:54.341Z,100794.59
2022-10-23T02:21:28.256Z,100783.13
2022-10-23T02:23:59.725Z,100786.91
2022-10-23T02:26:30.797Z,100784.16
2022-10-23T02:29:03.402Z,100790.41
2022-10-23T02:31:32.238Z,100790.63
2022-10-23T02:33:59.102Z,100791.25
2022-10-23T02:36:25.899Z,100780.59
2022-10-23T02:38:52.664Z,100781.94
2022-10-23T02:41:35.807Z,100780.78
2022-10-23T02:44:21.305Z,100767.84
2022-10-23T02:46:56.182Z,100765.97
2022-10-23T02:49:28.564Z,100761.44
2022-10-23T02:52:06.496Z,100750.56
2022-10-23T02:54:48.575Z,100740.47
2022-10-23T02:57:22.853Z,100735.00
2022-10-23T02:59:59.368Z,100738.06
2022-10-23T03:02:35.859Z,100737.88
2022-10-23T03:05:04.906Z,100726.81
2022-10-23T03:07:32.175Z,100723.13
2022-10-23T03:09:58.914Z,100726.75
2022-10-23T03:12:25.756Z,100713.75
2022-10-23T03:14:52.837Z,100709.00
2022-10-23T03:17:19.751Z,100701.09
2022-10-23T03:19:47.919Z,100705.75
2022-10-23T03:22:14.718Z,100701.09
2022-10-23T03:24:41.527Z,100700.72
2022-10-23T03:27:08.298Z,100695.84
2022-10-23T03:29:35.059Z,100688.38
2022-10-23T03:32:01.827Z,100684.38
2022-10-23T03:34:28.651Z,100682.25
2022-10-23T03:36:56.832Z,100675.56
2022-10-23T03:39:23.608Z,100679.72
2022-10-23T03:41:50.373Z,100676.03
2022-10-23T03:44:17.626Z,100677.50
2022-10-23T03:46:44.951Z,100681.72
2022-10-23T03:49:11.897Z,100676.56
2022-10-23T03:51:41.709Z,100668.34
2022-10-23T03:54:09.951Z,100671.34
2022-10-23T03:56:36.897Z,100661.16
2022-10-23T03:59:04.002Z,100665.75
2022-10-23T04:01:30.971Z,100655.88
2022-10-23T04:03:57.879Z,100653.59
2022-10-23T04:06:24.643Z,100648.41
2022-10-23T04:08:51.564Z,100648.84
2022-10-23T04:11:19.710Z,100642.28
2022-10-23T04:13:46.623Z,100638.34
2022-10-23T04:16:13.494Z,100631.75
2022-10-23T04:18:40.968Z,100633.25
2022-10-23T04:21:08.009Z,100634.72
2022-10-23T04:23:34.854Z,100633.81
2022-10-23T04:26:01.968Z,100642.22
2022-10-23T04:28:30.099Z,100645.00
2022-10-23T04:30:56.998Z,100639.09
2022-10-23T04:33:25.098Z,100646.50
2022-10-23T04:35:51.843Z,100650.00
2022-10-23T04:38:18.702Z,100646.44
2022-10-23T04:40:45.440Z,100650.00
2022-10-23T04:43:12.275Z,100638.00
2022-10-23T04:45:40.579Z,100639.13
2022-10-23T04:48:07.389Z,100639.28
2022-10-23T04:50:34.159Z,100621.38
2022-10-23T04:53:01.040Z,100620.19
2022-10-23T04:55:27.849Z,100629.56
2022-10-23T04:57:54.679Z,100625.47
2022-10-23T05:00:21.574Z,100619.41
2022-10-23T05:02:49.728Z,100615.13
2022-10-23T05:05:16.841Z,100617.22
2022-10-23T05:07:43.964Z,100613.72
2022-10-23T05:10:11.107Z,100604.41
2022-10-23T05:12:37.912Z,100598.06
2022-10-23T05:15:05.679Z,100593.06
2022-10-23T05:17:36.888Z,100597.97
2022-10-23T05:20:09.759Z,100594.63
2022-10-23T05:22:39.838Z,100570.00
2022-10-23T05:25:07.234Z,100574.97
2022-10-23T05:27:34.076Z,100559.53
2022-10-23T05:30:02.495Z,100568.63
2022-10-23T05:32:32.273Z,100570.38
2022-10-23T05:35:01.112Z,100563.09
2022-10-23T05:37:29.574Z,100554.84
2022-10-23T05:39:57.140Z,100560.00
2022-10-23T05:42:24.081Z,100564.56
2022-10-23T05:44:50.842Z,100546.69
2022-10-23T05:47:17.599Z,100543.13
2022-10-23T05:49:44.349Z,100547.94
2022-10-23T05:52:11.726Z,100536.41
2022-10-23T05:54:39.991Z,100530.78
2022-10-23T05:57:06.888Z,100534.03
2022-10-23T05:59:33.706Z,100529.63
2022-10-23T06:02:00.584Z,100526.41
2022-10-23T06:04:27.504Z,100525.94
2022-10-23T06:06:54.329Z,100522.03
2022-10-23T06:09:21.142Z,100519.97
2022-10-23T06:11:49.280Z,100505.84
2022-10-23T06:14:16.070Z,100501.81
2022-10-23T06:16:42.885Z,100491.09
2022-10-23T06:19:11.205Z,100491.47
2022-10-23T06:21:38.495Z,100488.16
2022-10-23T06:24:06.269Z,100483.44
2022-10-23T06:26:33.924Z,100483.06
2022-10-23T06:29:02.093Z,100480.19
2022-10-23T06:31:29.024Z,100501.34
2022-10-23T06:33:56.369Z,100506.00
2022-10-23T06:36:23.242Z,100493.19
2022-10-23T06:38:50.384Z,100485.44
2022-10-23T06:41:18.829Z,100478.25
2022-10-23T06:43:47.883Z,100473.06
2022-10-23T06:46:17.244Z,100464.25
2022-10-23T06:48:44.728Z,100452.91
2022-10-23T06:51:13.346Z,100468.22
2022-10-23T06:53:40.631Z,100485.97
2022-10-23T06:56:08.426Z,100466.78
2022-10-23T06:58:36.612Z,100474.28
2022-10-23T07:01:05.465Z,100479.34
2022-10-23T07:03:34.730Z,100468.63
2022-10-23T07:06:02.280Z,100464.47
2022-10-23T07:08:29.424Z,100482.13
2022-10-23T07:10:56.842Z,100478.81
2022-10-23T07:13:24.991Z,100483.47
2022-10-23T07:15:51.784Z,100480.91
2022-10-23T07:18:19.486Z,100489.47
2022-10-23T07:20:49.524Z,100496.09
2022-10-23T07:23:16.638Z,100495.13
2022-10-23T07:25:43.464Z,100495.25
2022-10-23T07:28:10.205Z,100494.41
2022-10-23T07:30:37.021Z,100514.59
2022-10-23T07:33:03.975Z,100515.31
2022-10-23T07:35:33.052Z,100501.38
2022-10-23T07:38:03.830Z,100504.13
2022-10-23T07:40:30.583Z,100506.53
2022-10-23T07:42:57.337Z,100506.97
2022-10-23T07:45:24.047Z,100498.47
2022-10-23T07:47:51.947Z,100504.50
2022-10-23T07:50:18.889Z,100496.88
2022-10-23T07:52:45.781Z,100489.94
2022-10-23T07:55:14.584Z,100520.25
2022-10-23T07:57:41.418Z,100506.94
2022-10-23T08:00:11.226Z,100505.19
2022-10-23T08:02:38.001Z,100498.13
2022-10-23T08:05:05.368Z,100498.06
2022-10-23T08:07:32.299Z,100488.00
2022-10-23T08:09:59.067Z,100485.22
2022-10-23T08:12:27.184Z,100477.56
2022-10-23T08:14:54.064Z,100465.41
2022-10-23T08:17:22.230Z,100448.50
2022-10-23T08:19:49.847Z,100423.50
2022-10-23T08:22:16.771Z,100431.56
2022-10-23T08:24:43.808Z,100424.72
2022-10-23T08:27:10.805Z,100421.94
2022-10-23T08:29:39.056Z,100446.16
2022-10-23T08:32:05.956Z,100446.94
2022-10-23T08:34:32.768Z,100446.16
2022-10-23T08:36:59.619Z,100443.75
2022-10-23T08:39:26.959Z,100448.53
2022-10-23T08:41:53.856Z,100438.47
2022-10-23T08:44:26.230Z,100426.84
2022-10-23T08:47:03.707Z,100426.84
2022-10-23T08:49:40.360Z,100421.16
2022-10-23T08:52:15.770Z,100417.09
2022-10-23T08:54:53.040Z,100375.56
2022-10-23T08:57:23.585Z,100341.25
2022-10-23T08:59:54.891Z,100327.88
2022-10-23T09:02:25.964Z,100315.34
2022-10-23T09:04:54.390Z,100312.47
2022-10-23T09:07:34.045Z,100304.06
2022-10-23T09:10:20.685Z,100302.53
2022-10-23T09:12:47.620Z,100283.53
2022-10-23T09:15:23.222Z,100294.81
2022-10-23T09:17:57.736Z,100289.59
2022-10-23T09:20:26.765Z,100290.41
2022-10-23T09:22:56.220Z,100291.66
2022-10-23T09:25:25.657Z,100284.75
2022-10-23T09:27:56.712Z,100284.78
2022-10-23T09:30:30.452Z,100277.13
2022-10-23T09:32:58.864Z,100276.28
2022-10-23T09:35:28.424Z,100298.91
2022-10-23T09:37:55.733Z,100281.16
2022-10-23T09:40:30.479Z,100279.53
2022-10-23T09:42:59.987Z,100282.34
2022-10-23T09:45:30.293Z,100276.72
2022-10-23T09:48:12.643Z,100276.31
2022-10-23T09:50:47.796Z,100289.25
2022-10-23T09:53:18.915Z,100291.28
2022-10-23T09:55:52.858Z,100289.66
2022-10-23T09:58:25.205Z,100277.53
2022-10-23T10:00:54.735Z,100270.63
2022-10-23T10:03:24.634Z,100276.63
2022-10-23T10:05:57.693Z,100277.03
2022-10-23T10:08:30.030Z,100274.19
2022-10-23T10:11:01.753Z,100277.41
2022-10-23T10:14:01.323Z,100279.78
2022-10-23T10:19:18.857Z,100271.69
2022-10-23T10:21:53.111Z,100282.22
2022-10-23T10:24:25.496Z,100280.91
2022-10-23T10:26:59.793Z,100280.06
2022-10-23T10:29:44.119Z,100287.66
2022-10-23T10:32:21.728Z,100279.97
2022-10-23T10:34:55.311Z,100275.44
2022-10-23T10:37:32.149Z,100284.19
2022-10-23T10:40:02.828Z,100299.88
2022-10-23T10:43:08.589Z,100294.22
2022-10-23T10:45:56.337Z,100285.78
2022-10-23T11:15:47.707Z,100241.41
2022-10-23T11:18:24.091Z,100245.59
2022-10-23T11:20:54.229Z,100239.72
2022-10-23T11:23:49.611Z,100236.78
2022-10-23T11:26:30.993Z,100226.59
2022-10-23T11:32:10.653Z,100224.59
2022-10-23T11:34:53.753Z,100222.53
2022-10-23T11:37:22.410Z,100220.75
2022-10-23T11:40:03.226Z,100217.22
2022-10-23T11:42:33.215Z,100211.28
2022-10-23T11:45:00.393Z,100213.09
2022-10-23T11:47:39.001Z,100202.91
2022-10-23T11:50:17.363Z,100201.56
2022-10-23T11:53:14.676Z,100197.72
2022-10-23T11:55:57.051Z,100186.78
2022-10-23T11:58:31.735Z,100174.75
2022-10-23T12:01:04.300Z,100175.59
2022-10-23T12:03:41.760Z,100173.28
2022-10-23T12:06:23.727Z,100163.03
2022-10-23T12:11:44.993Z,100145.47
2022-10-23T12:14:29.473Z,100144.03
2022-10-23T12:16:56.818Z,100133.63
2022-10-23T12:25:00.743Z,100131.19
2022-10-23T12:30:39.450Z,100126.69
2022-10-23T13:06:43.329Z,100081.38
2022-10-23T13:09:23.734Z,100085.84
2022-10-23T13:12:02.229Z,100074.19
2022-10-23T14:25:12.460Z,99994.88
2022-10-23T14:27:49.832Z,99990.56
2022-10-23T14:39:22.528Z,99979.78
2022-10-23T14:45:02.105Z,99975.06
2022-10-23T14:47:29.384Z,99974.03
2022-10-23T14:49:56.709Z,99975.44
2022-10-23T14:52:24.404Z,99977.69
2022-10-23T14:55:13.613Z,99978.28
2022-10-23T14:57:42.075Z,99969.28
2022-10-23T15:00:11.524Z,99960.00
2022-10-23T15:02:38.412Z,99959.66
2022-10-23T15:07:56.372Z,99962.78
2022-10-23T15:10:39.263Z,99967.78
2022-10-23T15:22:20.872Z,99963.38
2022-10-23T15:24:49.105Z,99966.72
2022-10-23T15:39:33.715Z,99939.16
2022-10-23T15:42:03.113Z,99928.88
2022-10-23T15:45:01.495Z,99922.63
2022-10-23T15:47:28.314Z,99924.56
2022-10-23T15:49:55.375Z,99916.06
2022-10-23T15:52:54.829Z,99916.03
2022-10-23T15:55:22.002Z,99902.13
2022-10-23T15:57:50.270Z,99891.03
2022-10-23T16:00:20.375Z,99899.19
2022-10-23T16:02:47.786Z,99889.50
2022-10-23T16:05:17.402Z,99871.00
2022-10-23T16:07:44.188Z,99864.00
2022-10-23T16:10:14.513Z,99848.22
2022-10-23T16:12:41.842Z,99846.16
2022-10-23T16:15:10.858Z,99849.97
2022-10-23T16:17:38.062Z,99851.63
2022-10-23T16:20:05.567Z,99851.75
2022-10-23T16:22:32.375Z,99835.25
2022-10-23T16:24:59.168Z,99828.63
2022-10-23T16:27:26.823Z,99823.53
2022-10-23T16:29:53.847Z,99824.09
2022-10-23T16:35:15.587Z,99834.16
2022-10-23T16:37:42.530Z,99842.53
2022-10-23T16:40:10.688Z,99845.50
2022-10-23T16:42:37.939Z,99858.47
2022-10-23T16:45:05.604Z,99849.41
2022-10-23T16:47:32.653Z,99838.59
2022-10-23T16:49:59.763Z,99806.53
2022-10-23T16:52:28.961Z,99816.38
2022-10-23T16:54:55.944Z,99829.69
2022-10-23T16:57:22.753Z,99825.91
2022-10-23T16:59:49.704Z,99776.72
2022-10-23T17:02:16.662Z,99755.16
2022-10-23T17:04:43.697Z,99743.09
2022-10-23T17:07:13.123Z,99771.34
2022-10-23T17:09:44.264Z,99787.00
2022-10-23T17:12:11.036Z,99782.88
2022-10-23T17:14:38.779Z,99779.78
2022-10-23T17:17:06.836Z,99781.72
2022-10-23T17:19:44.550Z,99781.16
2022-10-23T17:22:13.312Z,99805.25
2022-10-23T17:24:44.214Z,99832.75
2022-10-23T17:27:13.178Z,99856.25
2022-10-23T17:29:40.007Z,99868.91
2022-10-23T17:32:07.308Z,99870.91
2022-10-23T17:34:34.116Z,99876.13
2022-10-23T17:37:00.971Z,99866.59
2022-10-23T17:39:29.586Z,99859.66
2022-10-23T17:41:58.553Z,99849.47
2022-10-23T17:44:25.504Z,99843.81
2022-10-23T17:46:53.791Z,99907.16
2022-10-23T17:49:21.307Z,99968.53
2022-10-23T17:51:51.688Z,99973.44
2022-10-23T17:54:18.435Z,99948.88
2022-10-23T17:56:45.230Z,99950.53
2022-10-23T17:59:16.143Z,99943.00
2022-10-23T18:01:49.529Z,99934.31
2022-10-23T18:04:18.118Z,99938.88
2022-10-23T18:06:49.006Z,99943.41
2022-10-23T18:09:16.250Z,99932.94
2022-10-23T18:11:48.194Z,99943.53
2022-10-23T18:14:18.234Z,99951.31
2022-10-23T18:16:45.891Z,99943.72
2022-10-23T18:19:13.510Z,99949.91
2022-10-23T18:21:40.634Z,99962.44
2022-10-23T18:24:07.670Z,99961.28
2022-10-23T18:26:35.259Z,99964.94
2022-10-23T18:29:04.991Z,99953.66
2022-10-23T18:31:34.148Z,99962.56
2022-10-23T18:34:04.322Z,99954.56
2022-10-23T18:36:33.621Z,99948.50
2022-10-23T18:39:01.016Z,99947.31
2022-10-23T18:41:32.480Z,99944.50
2022-10-23T18:43:59.399Z,99941.72
2022-10-23T18:46:26.215Z,99950.19
2022-10-23T18:48:54.480Z,99944.97
2022-10-23T18:51:24.001Z,99942.16
2022-10-23T18:53:51.148Z,99946.63
2022-10-23T18:56:23.516Z,99948.28
2022-10-23T18:58:50.659Z,99951.91
2022-10-23T19:01:18.532Z,99946.69
2022-10-23T19:03:45.686Z,99943.44
2022-10-23T19:06:14.462Z,99936.16
2022-10-23T19:08:42.779Z,99945.72
2022-10-23T19:11:11.760Z,99947.78
2022-10-23T19:13:40.359Z,99951.00
2022-10-23T19:16:12.845Z,99945.69
2022-10-23T19:18:42.073Z,99948.06
2022-10-23T19:21:09.150Z,99947.66
2022-10-23T19:23:39.697Z,99953.41
2022-10-23T19:26:09.026Z,99957.78
2022-10-23T19:28:37.775Z,99964.97
2022-10-23T19:31:05.625Z,99956.13
2022-10-23T19:33:32.635Z,99951.72
2022-10-23T19:36:03.664Z,99948.56
2022-10-23T19:38:32.841Z,99954.53
2022-10-23T19:41:01.189Z,99961.00
2022-10-23T19:43:28.109Z,99957.41
2022-10-23T19:45:54.854Z,99963.50
2022-10-23T19:48:21.641Z,99968.72
2022-10-23T19:50:48.433Z,99962.69
2022-10-23T19:53:16.902Z,99964.28
2022-10-23T19:55:43.757Z,99967.13
2022-10-23T19:58:12.014Z,99965.50
2022-10-23T20:00:39.338Z,99973.63
2022-10-23T20:03:06.128Z,99977.25
2022-10-23T20:05:33.066Z,99971.19
2022-10-23T20:08:00.121Z,99986.16
2022-10-23T20:10:26.952Z,99998.28
2022-10-23T20:13:02.388Z,99995.84
2022-10-23T20:15:41.847Z,99993.44
2022-10-23T20:18:08.680Z,99993.38
2022-10-23T20:20:40.144Z,99990.19
2022-10-23T20:23:06.911Z,99996.66
2022-10-23T20:25:33.705Z,99983.75
2022-10-23T20:28:00.432Z,99981.72
2022-10-23T20:30:27.317Z,99982.97
2022-10-23T20:32:56.002Z,99978.97
2022-10-23T20:35:22.786Z,99973.72
2022-10-23T20:37:49.571Z,99979.31
2022-10-23T20:40:16.508Z,99978.53
2022-10-23T20:42:43.258Z,99985.81
2022-10-23T20:45:10.850Z,99986.16
2022-10-23T20:47:37.650Z,99978.84
2022-10-23T20:50:08.655Z,99985.66
2022-10-23T20:52:35.685Z,99986.09
2022-10-23T20:55:02.638Z,99984.81
2022-10-23T20:57:29.480Z,99984.88
2022-10-23T20:59:56.279Z,99988.06
2022-10-23T21:02:23.149Z,99978.69
2022-10-23T21:04:50.494Z,99972.63
2022-10-23T21:07:18.632Z,99973.47
2022-10-23T21:09:45.571Z,99975.06
2022-10-23T21:12:12.508Z,99968.97
2022-10-23T21:14:39.237Z,99970.16
2022-10-23T21:17:08.352Z,99968.88
2022-10-23T21:19:35.306Z,99969.63
2022-10-23T21:22:02.068Z,99977.38
2022-10-23T21:24:30.229Z,99983.41
2022-10-23T21:26:56.985Z,99968.09
2022-10-23T21:29:23.793Z,99971.59
2022-10-23T21:31:54.928Z,99969.63
2022-10-23T21:34:21.868Z,99972.19
2022-10-23T21:37:11.266Z,99972.19
2022-10-23T21:39:36.820Z,99965.00
2022-10-23T21:42:03.964Z,99963.50
2022-10-23T21:44:30.776Z,99959.44
2022-10-23T21:46:57.940Z,99963.06
2022-10-23T21:49:24.713Z,99959.47
2022-10-23T21:51:51.509Z,99956.25
2022-10-23T21:54:18.282Z,99946.94
2022-10-23T21:56:48.555Z,99951.34
2022-10-23T21:59:17.516Z,99944.47
2022-10-23T22:01:45.886Z,99943.63
2022-10-23T22:04:14.376Z,99943.91
2022-10-23T22:06:41.978Z,99942.63
2022-10-23T22:09:09.404Z,99938.22
2022-10-23T22:11:36.255Z,99926.50
2022-10-23T22:14:04.814Z,99917.28
2022-10-23T22:16:31.660Z,99908.47
2022-10-23T22:18:58.516Z,99904.38
2022-10-23T22:21:28.494Z,99904.75
2022-10-23T22:23:57.320Z,99908.03
2022-10-23T22:26:26.529Z,99903.63
2022-10-23T22:28:55.662Z,99905.72
2022-10-23T22:31:25.831Z,99913.22
2022-10-23T22:33:53.556Z,99904.34
2022-10-23T22:36:21.040Z,99901.97
2022-10-23T22:38:48.215Z,99898.78
2022-10-23T22:41:15.093Z,99904.75
2022-10-23T22:43:42.011Z,99902.00
2022-10-23T22:46:10.552Z,99890.19
2022-10-23T22:48:39.054Z,99887.41
2022-10-23T22:51:08.961Z,99896.97
2022-10-23T22:53:36.425Z,99888.13
2022-10-23T22:56:06.673Z,99885.75
2022-10-23T22:58:33.524Z,99889.38
2022-10-23T23:01:04.429Z,99870.28
2022-10-23T23:03:31.299Z,99872.06
2022-10-23T23:05:59.442Z,99872.47
2022-10-23T23:08:26.656Z,99873.63
2022-10-23T23:10:54.242Z,99876.81
2022-10-23T23:13:20.999Z,99878.00
2022-10-23T23:15:47.931Z,99885.19
2022-10-23T23:18:14.844Z,99872.72
2022-10-23T23:20:41.590Z,99879.56
2022-10-23T23:23:11.740Z,99872.28
2022-10-23T23:25:41.343Z,99867.44
2022-10-23T23:28:08.434Z,99874.34
2022-10-23T23:30:35.220Z,99865.44
2022-10-23T23:33:02.002Z,99860.44
2022-10-23T23:35:29.467Z,99868.78
2022-10-23T23:37:56.638Z,99869.59
2022-10-23T23:40:24.831Z,99857.44
2022-10-23T23:42:51.613Z,99864.19
2022-10-23T23:45:18.420Z,99869.91
2022-10-23T23:47:45.472Z,99873.47
2022-10-23T23:50:13.028Z,99851.25
2022-10-23T23:52:39.829Z,99857.31
2022-10-23T23:55:07.335Z,99864.19
2022-10-23T23:57:35.529Z,99854.50
